Archival Weather

Vermilion Rgnl

Danville, Illinois (KDNV)

Report from: Tuesday, March 26, 2024 10:35 AM CDT
Current time: Sunday, July 14, 2024 5:42 AM CDT

Current weather – Weather history – Daily summaries
Weather forecast

Temperature15.5°C (59.9°F)
Dew point9.8°C (49.6°F)
Winds 24 kts (12.3 m/s, 27.6 mph) South (190°)
Wind gusts 36 kts (18.5 m/s, 41.4 mph)
Visibility10 mi. (16.1 km)
Clouds Ceiling: Broken clouds 3,000 ft. (914 m)
Overcast 4,000 ft. (1,219 m)
Altimeter29.50 in.Hg (999 mB)
Relative humidity69 %
Density altitude716 ft. (218 m)
Remarks Fully automated report
Automated weather observing station with precipitation discriminator
Flight conditions Visual Meteorological Conditions
Raw dataKDNV 261535Z AUTO 19024G36KT 10SM BKN030 OVC040 16/10 A2950 RMK AO2 T01550098
An error has occurred. This application may no longer respond until reloaded. Reload 🗙